sensor_id;sensor_type;location;lat;lon;timestamp;P1;durP1;ratioP1;P2;durP2;ratioP2
4756;SDS011;2392;52.578;13.426;2023-05-10T00:00:46;6.00;;;5.07;;
4756;SDS011;2392;52.578;13.426;2023-05-10T00:03:13;8.50;;;6.50;;
4756;SDS011;2392;52.578;13.426;2023-05-10T00:05:42;4.93;;;4.53;;
4756;SDS011;2392;52.578;13.426;2023-05-10T00:08:09;5.53;;;4.60;;
4756;SDS011;2392;52.578;13.426;2023-05-10T00:10:36;5.60;;;4.90;;
4756;SDS011;2392;52.578;13.426;2023-05-10T00:13:03;8.57;;;4.90;;
4756;SDS011;2392;52.578;13.426;2023-05-10T00:15:30;5.47;;;4.83;;
4756;SDS011;2392;52.578;13.426;2023-05-10T00:17:57;5.50;;;4.57;;
4756;SDS011;2392;52.578;13.426;2023-05-10T00:20:24;9.67;;;4.90;;
4756;SDS011;2392;52.578;13.426;2023-05-10T00:22:52;4.83;;;4.30;;
4756;SDS011;2392;52.578;13.426;2023-05-10T00:25:19;5.80;;;5.30;;
4756;SDS011;2392;52.578;13.426;2023-05-10T00:27:47;5.37;;;4.87;;
4756;SDS011;2392;52.578;13.426;2023-05-10T00:30:14;5.47;;;4.87;;
4756;SDS011;2392;52.578;13.426;2023-05-10T00:32:42;5.43;;;4.93;;
4756;SDS011;2392;52.578;13.426;2023-05-10T00:35:09;5.80;;;5.30;;
4756;SDS011;2392;52.578;13.426;2023-05-10T00:37:36;5.83;;;5.27;;
4756;SDS011;2392;52.578;13.426;2023-05-10T00:40:05;5.53;;;5.07;;
4756;SDS011;2392;52.578;13.426;2023-05-10T00:42:33;6.53;;;5.40;;
4756;SDS011;2392;52.578;13.426;2023-05-10T00:45:00;6.10;;;5.00;;
4756;SDS011;2392;52.578;13.426;2023-05-10T00:47:27;9.57;;;6.03;;
4756;SDS011;2392;52.578;13.426;2023-05-10T00:49:55;5.70;;;5.10;;
4756;SDS011;2392;52.578;13.426;2023-05-10T00:52:22;6.50;;;5.47;;
4756;SDS011;2392;52.578;13.426;2023-05-10T00:54:50;5.30;;;4.80;;
4756;SDS011;2392;52.578;13.426;2023-05-10T00:57:19;6.70;;;5.43;;
4756;SDS011;2392;52.578;13.426;2023-05-10T00:59:47;7.00;;;5.40;;
4756;SDS011;2392;52.578;13.426;2023-05-10T01:02:14;6.13;;;5.53;;
4756;SDS011;2392;52.578;13.426;2023-05-10T01:04:42;8.20;;;5.23;;
4756;SDS011;2392;52.578;13.426;2023-05-10T01:07:09;6.03;;;5.30;;
4756;SDS011;2392;52.578;13.426;2023-05-10T01:09:36;5.70;;;5.10;;
4756;SDS011;2392;52.578;13.426;2023-05-10T01:12:04;9.73;;;6.00;;
4756;SDS011;2392;52.578;13.426;2023-05-10T01:14:34;5.03;;;4.53;;
4756;SDS011;2392;52.578;13.426;2023-05-10T01:17:01;6.70;;;6.00;;
4756;SDS011;2392;52.578;13.426;2023-05-10T01:19:29;6.10;;;4.80;;
4756;SDS011;2392;52.578;13.426;2023-05-10T01:22:01;5.57;;;4.97;;
4756;SDS011;2392;52.578;13.426;2023-05-10T01:24:48;5.13;;;4.73;;
4756;SDS011;2392;52.578;13.426;2023-05-10T01:30:45;6.13;;;5.53;;
4756;SDS011;2392;52.578;13.426;2023-05-10T01:33:31;8.10;;;5.10;;
4756;SDS011;2392;52.578;13.426;2023-05-10T01:36:06;7.13;;;4.83;;
4756;SDS011;2392;52.578;13.426;2023-05-10T01:38:42;16.90;;;4.67;;
4756;SDS011;2392;52.578;13.426;2023-05-10T01:41:17;6.70;;;5.30;;
4756;SDS011;2392;52.578;13.426;2023-05-10T01:43:48;6.00;;;5.20;;
4756;SDS011;2392;52.578;13.426;2023-05-10T01:46:24;7.47;;;5.30;;
4756;SDS011;2392;52.578;13.426;2023-05-10T01:48:58;5.93;;;5.33;;
4756;SDS011;2392;52.578;13.426;2023-05-10T01:51:31;10.13;;;5.77;;
4756;SDS011;2392;52.578;13.426;2023-05-10T01:54:05;8.80;;;6.30;;
4756;SDS011;2392;52.578;13.426;2023-05-10T01:56:34;5.90;;;5.13;;
4756;SDS011;2392;52.578;13.426;2023-05-10T01:59:05;6.97;;;5.77;;
4756;SDS011;2392;52.578;13.426;2023-05-10T02:01:35;7.77;;;5.30;;
4756;SDS011;2392;52.578;13.426;2023-05-10T02:04:05;11.60;;;5.70;;
4756;SDS011;2392;52.578;13.426;2023-05-10T02:06:33;6.77;;;5.40;;
4756;SDS011;2392;52.578;13.426;2023-05-10T02:11:29;14.50;;;5.63;;
4756;SDS011;2392;52.578;13.426;2023-05-10T02:13:57;8.90;;;5.90;;
4756;SDS011;2392;52.578;13.426;2023-05-10T02:16:27;9.40;;;6.13;;
4756;SDS011;2392;52.578;13.426;2023-05-10T02:18:55;13.53;;;6.00;;
4756;SDS011;2392;52.578;13.426;2023-05-10T02:21:27;14.50;;;5.90;;
4756;SDS011;2392;52.578;13.426;2023-05-10T02:23:56;7.40;;;6.03;;
4756;SDS011;2392;52.578;13.426;2023-05-10T02:26:24;9.63;;;5.80;;
4756;SDS011;2392;52.578;13.426;2023-05-10T02:28:52;9.90;;;6.33;;
4756;SDS011;2392;52.578;13.426;2023-05-10T02:31:21;8.40;;;5.80;;
4756;SDS011;2392;52.578;13.426;2023-05-10T02:33:49;15.27;;;6.33;;
4756;SDS011;2392;52.578;13.426;2023-05-10T02:36:17;6.93;;;5.43;;
4756;SDS011;2392;52.578;13.426;2023-05-10T02:38:47;6.93;;;5.53;;
4756;SDS011;2392;52.578;13.426;2023-05-10T02:41:17;8.07;;;5.80;;
4756;SDS011;2392;52.578;13.426;2023-05-10T02:43:47;6.00;;;5.40;;
4756;SDS011;2392;52.578;13.426;2023-05-10T02:46:16;6.87;;;5.10;;
4756;SDS011;2392;52.578;13.426;2023-05-10T02:48:44;6.73;;;5.33;;
4756;SDS011;2392;52.578;13.426;2023-05-10T02:51:11;7.03;;;4.87;;
4756;SDS011;2392;52.578;13.426;2023-05-10T02:53:43;5.77;;;4.37;;
4756;SDS011;2392;52.578;13.426;2023-05-10T02:56:13;7.33;;;5.07;;
4756;SDS011;2392;52.578;13.426;2023-05-10T02:58:46;5.27;;;4.77;;
4756;SDS011;2392;52.578;13.426;2023-05-10T03:01:16;7.87;;;5.43;;
4756;SDS011;2392;52.578;13.426;2023-05-10T03:03:43;7.27;;;5.27;;
4756;SDS011;2392;52.578;13.426;2023-05-10T03:06:10;5.93;;;5.33;;
4756;SDS011;2392;52.578;13.426;2023-05-10T03:08:37;7.60;;;4.80;;
4756;SDS011;2392;52.578;13.426;2023-05-10T03:11:10;11.07;;;5.43;;
4756;SDS011;2392;52.578;13.426;2023-05-10T03:14:06;6.53;;;4.70;;
4756;SDS011;2392;52.578;13.426;2023-05-10T03:16:40;6.33;;;4.87;;
4756;SDS011;2392;52.578;13.426;2023-05-10T03:19:13;14.87;;;4.80;;
4756;SDS011;2392;52.578;13.426;2023-05-10T03:21:45;5.50;;;4.60;;
4756;SDS011;2392;52.578;13.426;2023-05-10T03:24:16;7.13;;;4.77;;
4756;SDS011;2392;52.578;13.426;2023-05-10T03:26:49;10.10;;;5.77;;
4756;SDS011;2392;52.578;13.426;2023-05-10T03:29:17;8.17;;;5.30;;
4756;SDS011;2392;52.578;13.426;2023-05-10T03:31:44;9.10;;;4.53;;
4756;SDS011;2392;52.578;13.426;2023-05-10T03:34:13;9.50;;;4.60;;
4756;SDS011;2392;52.578;13.426;2023-05-10T03:36:40;5.97;;;4.60;;
4756;SDS011;2392;52.578;13.426;2023-05-10T03:39:08;5.83;;;4.73;;
4756;SDS011;2392;52.578;13.426;2023-05-10T03:41:36;11.33;;;6.00;;
4756;SDS011;2392;52.578;13.426;2023-05-10T03:44:04;8.97;;;5.20;;
4756;SDS011;2392;52.578;13.426;2023-05-10T03:46:31;6.17;;;5.17;;
4756;SDS011;2392;52.578;13.426;2023-05-10T03:48:59;7.97;;;5.70;;
4756;SDS011;2392;52.578;13.426;2023-05-10T03:51:26;6.23;;;5.63;;
4756;SDS011;2392;52.578;13.426;2023-05-10T03:53:53;7.20;;;5.40;;
4756;SDS011;2392;52.578;13.426;2023-05-10T03:56:21;7.27;;;5.70;;
4756;SDS011;2392;52.578;13.426;2023-05-10T03:58:48;8.73;;;5.80;;
4756;SDS011;2392;52.578;13.426;2023-05-10T04:01:16;5.83;;;4.47;;
4756;SDS011;2392;52.578;13.426;2023-05-10T04:03:43;8.43;;;4.60;;
4756;SDS011;2392;52.578;13.426;2023-05-10T04:06:11;5.13;;;4.60;;
4756;SDS011;2392;52.578;13.426;2023-05-10T04:08:38;11.53;;;4.73;;
4756;SDS011;2392;52.578;13.426;2023-05-10T04:11:05;8.07;;;4.80;;
4756;SDS011;2392;52.578;13.426;2023-05-10T04:13:33;8.13;;;4.30;;
4756;SDS011;2392;52.578;13.426;2023-05-10T04:16:00;4.53;;;4.10;;
4756;SDS011;2392;52.578;13.426;2023-05-10T04:18:29;11.60;;;4.80;;
4756;SDS011;2392;52.578;13.426;2023-05-10T04:20:56;5.33;;;4.73;;
4756;SDS011;2392;52.578;13.426;2023-05-10T04:23:23;8.40;;;5.27;;
4756;SDS011;2392;52.578;13.426;2023-05-10T04:25:50;9.83;;;4.97;;
4756;SDS011;2392;52.578;13.426;2023-05-10T04:28:18;9.03;;;4.83;;
4756;SDS011;2392;52.578;13.426;2023-05-10T04:30:45;6.00;;;4.67;;
4756;SDS011;2392;52.578;13.426;2023-05-10T04:33:12;7.03;;;4.70;;
4756;SDS011;2392;52.578;13.426;2023-05-10T04:35:40;6.33;;;4.40;;
4756;SDS011;2392;52.578;13.426;2023-05-10T04:38:07;7.70;;;4.80;;
4756;SDS011;2392;52.578;13.426;2023-05-10T04:40:34;8.03;;;4.53;;
4756;SDS011;2392;52.578;13.426;2023-05-10T04:43:01;4.97;;;4.47;;
4756;SDS011;2392;52.578;13.426;2023-05-10T04:45:28;4.93;;;4.00;;
4756;SDS011;2392;52.578;13.426;2023-05-10T04:47:55;6.70;;;4.47;;
4756;SDS011;2392;52.578;13.426;2023-05-10T04:50:22;5.10;;;4.67;;
4756;SDS011;2392;52.578;13.426;2023-05-10T04:52:51;5.53;;;4.40;;
4756;SDS011;2392;52.578;13.426;2023-05-10T04:55:18;6.50;;;4.50;;
4756;SDS011;2392;52.578;13.426;2023-05-10T04:57:45;6.43;;;4.90;;
4756;SDS011;2392;52.578;13.426;2023-05-10T05:00:12;6.47;;;4.50;;
4756;SDS011;2392;52.578;13.426;2023-05-10T05:02:41;5.93;;;4.50;;
4756;SDS011;2392;52.578;13.426;2023-05-10T05:05:09;5.87;;;4.50;;
4756;SDS011;2392;52.578;13.426;2023-05-10T05:07:36;5.20;;;4.70;;
4756;SDS011;2392;52.578;13.426;2023-05-10T05:10:05;10.23;;;5.17;;
4756;SDS011;2392;52.578;13.426;2023-05-10T05:12:33;6.50;;;4.00;;
4756;SDS011;2392;52.578;13.426;2023-05-10T05:15:00;6.70;;;4.50;;
4756;SDS011;2392;52.578;13.426;2023-05-10T05:17:27;7.33;;;4.47;;
4756;SDS011;2392;52.578;13.426;2023-05-10T05:19:56;7.40;;;3.77;;
4756;SDS011;2392;52.578;13.426;2023-05-10T05:22:23;3.97;;;3.40;;
4756;SDS011;2392;52.578;13.426;2023-05-10T05:24:52;10.57;;;5.57;;
4756;SDS011;2392;52.578;13.426;2023-05-10T05:27:21;11.30;;;4.50;;
4756;SDS011;2392;52.578;13.426;2023-05-10T05:29:49;3.83;;;3.43;;
4756;SDS011;2392;52.578;13.426;2023-05-10T05:32:16;4.17;;;3.80;;
4756;SDS011;2392;52.578;13.426;2023-05-10T05:34:44;14.53;;;4.03;;
4756;SDS011;2392;52.578;13.426;2023-05-10T05:37:12;5.67;;;3.83;;
4756;SDS011;2392;52.578;13.426;2023-05-10T05:39:39;5.27;;;3.50;;
4756;SDS011;2392;52.578;13.426;2023-05-10T05:42:07;7.53;;;3.90;;
4756;SDS011;2392;52.578;13.426;2023-05-10T05:44:36;10.53;;;4.00;;
4756;SDS011;2392;52.578;13.426;2023-05-10T05:47:03;8.50;;;3.77;;
4756;SDS011;2392;52.578;13.426;2023-05-10T05:49:30;6.40;;;3.77;;
4756;SDS011;2392;52.578;13.426;2023-05-10T05:51:58;6.63;;;3.80;;
4756;SDS011;2392;52.578;13.426;2023-05-10T05:54:26;5.63;;;3.47;;
4756;SDS011;2392;52.578;13.426;2023-05-10T05:56:53;3.33;;;3.03;;
4756;SDS011;2392;52.578;13.426;2023-05-10T05:59:21;4.07;;;3.20;;
4756;SDS011;2392;52.578;13.426;2023-05-10T06:01:49;5.90;;;3.40;;
4756;SDS011;2392;52.578;13.426;2023-05-10T06:04:17;4.43;;;3.30;;
4756;SDS011;2392;52.578;13.426;2023-05-10T06:06:44;3.87;;;3.03;;
4756;SDS011;2392;52.578;13.426;2023-05-10T06:09:12;3.90;;;3.13;;
4756;SDS011;2392;52.578;13.426;2023-05-10T06:11:39;3.37;;;3.07;;
4756;SDS011;2392;52.578;13.426;2023-05-10T06:14:06;4.33;;;3.20;;
4756;SDS011;2392;52.578;13.426;2023-05-10T06:16:33;4.57;;;3.00;;
4756;SDS011;2392;52.578;13.426;2023-05-10T06:19:01;3.27;;;2.70;;
4756;SDS011;2392;52.578;13.426;2023-05-10T06:21:29;5.93;;;3.00;;
4756;SDS011;2392;52.578;13.426;2023-05-10T06:23:56;10.07;;;3.90;;
4756;SDS011;2392;52.578;13.426;2023-05-10T06:26:23;4.33;;;3.33;;
4756;SDS011;2392;52.578;13.426;2023-05-10T06:28:50;10.80;;;3.47;;
4756;SDS011;2392;52.578;13.426;2023-05-10T06:31:17;6.00;;;2.87;;
4756;SDS011;2392;52.578;13.426;2023-05-10T06:33:44;5.20;;;3.20;;
4756;SDS011;2392;52.578;13.426;2023-05-10T06:36:14;4.33;;;2.53;;
4756;SDS011;2392;52.578;13.426;2023-05-10T06:38:41;4.03;;;2.43;;
4756;SDS011;2392;52.578;13.426;2023-05-10T06:41:08;3.03;;;2.70;;
4756;SDS011;2392;52.578;13.426;2023-05-10T06:43:35;4.23;;;2.60;;
4756;SDS011;2392;52.578;13.426;2023-05-10T06:46:05;5.37;;;2.77;;
4756;SDS011;2392;52.578;13.426;2023-05-10T06:48:32;3.57;;;2.30;;
4756;SDS011;2392;52.578;13.426;2023-05-10T06:50:59;4.57;;;2.67;;
4756;SDS011;2392;52.578;13.426;2023-05-10T06:53:28;3.03;;;2.73;;
4756;SDS011;2392;52.578;13.426;2023-05-10T06:55:55;5.63;;;4.50;;
4756;SDS011;2392;52.578;13.426;2023-05-10T06:58:22;3.10;;;2.83;;
4756;SDS011;2392;52.578;13.426;2023-05-10T07:00:49;2.60;;;2.40;;
4756;SDS011;2392;52.578;13.426;2023-05-10T07:03:16;5.30;;;3.03;;
4756;SDS011;2392;52.578;13.426;2023-05-10T07:05:43;2.37;;;2.27;;
4756;SDS011;2392;52.578;13.426;2023-05-10T07:08:10;2.70;;;2.47;;
4756;SDS011;2392;52.578;13.426;2023-05-10T07:10:39;4.23;;;3.13;;
4756;SDS011;2392;52.578;13.426;2023-05-10T07:13:06;2.37;;;2.17;;
4756;SDS011;2392;52.578;13.426;2023-05-10T07:15:33;3.57;;;2.93;;
4756;SDS011;2392;52.578;13.426;2023-05-10T07:18:00;4.63;;;3.00;;
4756;SDS011;2392;52.578;13.426;2023-05-10T07:20:29;3.60;;;2.50;;
4756;SDS011;2392;52.578;13.426;2023-05-10T07:22:56;6.90;;;3.20;;
4756;SDS011;2392;52.578;13.426;2023-05-10T07:25:23;2.87;;;2.20;;
4756;SDS011;2392;52.578;13.426;2023-05-10T07:27:51;4.20;;;3.30;;
4756;SDS011;2392;52.578;13.426;2023-05-10T07:30:18;2.70;;;2.50;;
4756;SDS011;2392;52.578;13.426;2023-05-10T07:32:45;3.17;;;2.80;;
4756;SDS011;2392;52.578;13.426;2023-05-10T07:35:12;3.10;;;2.80;;
4756;SDS011;2392;52.578;13.426;2023-05-10T07:37:39;3.50;;;3.10;;
4756;SDS011;2392;52.578;13.426;2023-05-10T07:40:07;3.33;;;2.57;;
4756;SDS011;2392;52.578;13.426;2023-05-10T07:42:34;3.57;;;2.83;;
4756;SDS011;2392;52.578;13.426;2023-05-10T07:45:03;3.30;;;3.00;;
4756;SDS011;2392;52.578;13.426;2023-05-10T07:47:31;3.13;;;2.60;;
4756;SDS011;2392;52.578;13.426;2023-05-10T07:49:58;6.03;;;3.10;;
4756;SDS011;2392;52.578;13.426;2023-05-10T07:52:25;4.33;;;2.60;;
4756;SDS011;2392;52.578;13.426;2023-05-10T07:54:52;3.70;;;2.67;;
4756;SDS011;2392;52.578;13.426;2023-05-10T07:57:19;3.23;;;2.93;;
4756;SDS011;2392;52.578;13.426;2023-05-10T07:59:46;3.27;;;2.80;;
4756;SDS011;2392;52.578;13.426;2023-05-10T08:02:15;4.87;;;3.63;;
4756;SDS011;2392;52.578;13.426;2023-05-10T08:04:42;3.90;;;2.97;;
4756;SDS011;2392;52.578;13.426;2023-05-10T08:07:09;3.63;;;3.33;;
4756;SDS011;2392;52.578;13.426;2023-05-10T08:09:36;11.70;;;3.23;;
4756;SDS011;2392;52.578;13.426;2023-05-10T08:12:03;3.00;;;2.70;;
4756;SDS011;2392;52.578;13.426;2023-05-10T08:14:31;4.00;;;2.63;;
4756;SDS011;2392;52.578;13.426;2023-05-10T08:16:58;4.27;;;3.10;;
4756;SDS011;2392;52.578;13.426;2023-05-10T08:19:26;5.50;;;3.10;;
4756;SDS011;2392;52.578;13.426;2023-05-10T08:21:53;3.43;;;2.90;;
4756;SDS011;2392;52.578;13.426;2023-05-10T08:24:20;3.87;;;3.07;;
4756;SDS011;2392;52.578;13.426;2023-05-10T08:26:48;3.00;;;2.50;;
4756;SDS011;2392;52.578;13.426;2023-05-10T08:29:15;2.97;;;2.77;;
4756;SDS011;2392;52.578;13.426;2023-05-10T08:31:42;2.90;;;2.60;;
4756;SDS011;2392;52.578;13.426;2023-05-10T08:34:09;2.97;;;2.67;;
4756;SDS011;2392;52.578;13.426;2023-05-10T08:36:38;3.03;;;2.77;;
4756;SDS011;2392;52.578;13.426;2023-05-10T08:39:04;3.87;;;2.70;;
4756;SDS011;2392;52.578;13.426;2023-05-10T08:41:32;7.87;;;2.80;;
4756;SDS011;2392;52.578;13.426;2023-05-10T08:44:02;2.80;;;2.60;;
4756;SDS011;2392;52.578;13.426;2023-05-10T08:46:30;3.17;;;2.40;;
4756;SDS011;2392;52.578;13.426;2023-05-10T08:49:01;4.20;;;3.00;;
4756;SDS011;2392;52.578;13.426;2023-05-10T08:51:31;3.63;;;3.10;;
4756;SDS011;2392;52.578;13.426;2023-05-10T08:54:04;4.63;;;2.90;;
4756;SDS011;2392;52.578;13.426;2023-05-10T08:56:31;6.27;;;3.30;;
4756;SDS011;2392;52.578;13.426;2023-05-10T08:58:58;2.73;;;2.53;;
4756;SDS011;2392;52.578;13.426;2023-05-10T09:01:26;3.27;;;2.70;;
4756;SDS011;2392;52.578;13.426;2023-05-10T09:03:53;2.90;;;2.67;;
4756;SDS011;2392;52.578;13.426;2023-05-10T09:06:21;3.13;;;2.93;;
4756;SDS011;2392;52.578;13.426;2023-05-10T09:08:48;3.30;;;2.43;;
4756;SDS011;2392;52.578;13.426;2023-05-10T09:11:18;2.73;;;2.60;;
4756;SDS011;2392;52.578;13.426;2023-05-10T09:13:47;3.67;;;2.60;;
4756;SDS011;2392;52.578;13.426;2023-05-10T09:16:16;6.30;;;3.30;;
4756;SDS011;2392;52.578;13.426;2023-05-10T09:18:43;3.43;;;2.73;;
4756;SDS011;2392;52.578;13.426;2023-05-10T09:21:10;4.40;;;3.43;;
4756;SDS011;2392;52.578;13.426;2023-05-10T09:23:38;4.13;;;2.83;;
4756;SDS011;2392;52.578;13.426;2023-05-10T09:26:09;4.13;;;2.67;;
4756;SDS011;2392;52.578;13.426;2023-05-10T09:28:50;7.20;;;2.60;;
4756;SDS011;2392;52.578;13.426;2023-05-10T09:31:18;5.70;;;2.87;;
4756;SDS011;2392;52.578;13.426;2023-05-10T09:33:45;3.33;;;2.80;;
4756;SDS011;2392;52.578;13.426;2023-05-10T09:36:13;3.17;;;2.23;;
4756;SDS011;2392;52.578;13.426;2023-05-10T09:38:47;8.17;;;2.60;;
4756;SDS011;2392;52.578;13.426;2023-05-10T09:41:15;5.90;;;2.50;;
4756;SDS011;2392;52.578;13.426;2023-05-10T09:43:45;3.53;;;2.60;;
4756;SDS011;2392;52.578;13.426;2023-05-10T09:46:11;3.53;;;2.87;;
4756;SDS011;2392;52.578;13.426;2023-05-10T09:48:40;2.80;;;2.60;;
4756;SDS011;2392;52.578;13.426;2023-05-10T09:51:09;6.40;;;3.30;;
4756;SDS011;2392;52.578;13.426;2023-05-10T09:53:36;4.70;;;2.70;;
4756;SDS011;2392;52.578;13.426;2023-05-10T09:56:03;2.90;;;2.70;;
4756;SDS011;2392;52.578;13.426;2023-05-10T09:58:31;3.20;;;3.00;;
4756;SDS011;2392;52.578;13.426;2023-05-10T10:01:04;7.90;;;3.20;;
4756;SDS011;2392;52.578;13.426;2023-05-10T10:03:40;2.90;;;2.57;;
4756;SDS011;2392;52.578;13.426;2023-05-10T10:06:08;8.23;;;2.50;;
4756;SDS011;2392;52.578;13.426;2023-05-10T10:08:35;3.83;;;2.90;;
4756;SDS011;2392;52.578;13.426;2023-05-10T10:11:03;4.30;;;2.50;;
4756;SDS011;2392;52.578;13.426;2023-05-10T10:13:30;2.33;;;2.13;;
4756;SDS011;2392;52.578;13.426;2023-05-10T10:15:58;3.07;;;2.77;;
4756;SDS011;2392;52.578;13.426;2023-05-10T10:18:26;4.10;;;2.57;;
4756;SDS011;2392;52.578;13.426;2023-05-10T10:20:54;4.97;;;3.03;;
4756;SDS011;2392;52.578;13.426;2023-05-10T10:23:22;5.03;;;2.60;;
4756;SDS011;2392;52.578;13.426;2023-05-10T10:25:49;5.00;;;2.60;;
4756;SDS011;2392;52.578;13.426;2023-05-10T10:28:21;6.37;;;3.00;;
4756;SDS011;2392;52.578;13.426;2023-05-10T10:30:53;3.83;;;2.20;;
4756;SDS011;2392;52.578;13.426;2023-05-10T10:33:30;2.57;;;2.47;;
4756;SDS011;2392;52.578;13.426;2023-05-10T10:36:05;2.80;;;2.30;;
4756;SDS011;2392;52.578;13.426;2023-05-10T10:38:36;2.40;;;2.30;;
4756;SDS011;2392;52.578;13.426;2023-05-10T10:41:27;3.07;;;2.50;;
4756;SDS011;2392;52.578;13.426;2023-05-10T10:50:06;2.57;;;2.47;;
4756;SDS011;2392;52.578;13.426;2023-05-10T10:52:35;3.63;;;2.43;;
4756;SDS011;2392;52.578;13.426;2023-05-10T10:55:03;8.20;;;2.10;;
4756;SDS011;2392;52.578;13.426;2023-05-10T10:57:35;2.20;;;2.10;;
4756;SDS011;2392;52.578;13.426;2023-05-10T11:00:26;2.60;;;2.20;;
4756;SDS011;2392;52.578;13.426;2023-05-10T11:02:55;2.30;;;2.20;;
4756;SDS011;2392;52.578;13.426;2023-05-10T11:05:33;3.83;;;1.90;;
4756;SDS011;2392;52.578;13.426;2023-05-10T11:08:15;4.80;;;2.13;;
4756;SDS011;2392;52.578;13.426;2023-05-10T11:10:54;1.87;;;1.77;;
4756;SDS011;2392;52.578;13.426;2023-05-10T11:13:33;4.20;;;1.90;;
4756;SDS011;2392;52.578;13.426;2023-05-10T11:16:10;3.00;;;2.03;;
4756;SDS011;2392;52.578;13.426;2023-05-10T11:18:38;2.53;;;1.60;;
4756;SDS011;2392;52.578;13.426;2023-05-10T11:21:08;2.10;;;1.83;;
4756;SDS011;2392;52.578;13.426;2023-05-10T11:23:47;2.00;;;1.83;;
4756;SDS011;2392;52.578;13.426;2023-05-10T11:26:15;2.50;;;2.20;;
4756;SDS011;2392;52.578;13.426;2023-05-10T11:28:43;5.43;;;2.07;;
4756;SDS011;2392;52.578;13.426;2023-05-10T11:31:12;2.50;;;2.30;;
4756;SDS011;2392;52.578;13.426;2023-05-10T11:33:43;2.40;;;2.20;;
4756;SDS011;2392;52.578;13.426;2023-05-10T11:36:13;2.63;;;2.30;;
4756;SDS011;2392;52.578;13.426;2023-05-10T11:38:41;2.50;;;2.30;;
4756;SDS011;2392;52.578;13.426;2023-05-10T11:41:08;2.40;;;2.20;;
4756;SDS011;2392;52.578;13.426;2023-05-10T11:43:36;5.10;;;2.60;;
4756;SDS011;2392;52.578;13.426;2023-05-10T11:46:04;3.57;;;2.90;;
4756;SDS011;2392;52.578;13.426;2023-05-10T11:48:32;6.10;;;2.40;;
4756;SDS011;2392;52.578;13.426;2023-05-10T11:51:00;4.03;;;2.83;;
4756;SDS011;2392;52.578;13.426;2023-05-10T11:53:28;4.80;;;2.60;;
4756;SDS011;2392;52.578;13.426;2023-05-10T11:56:02;2.57;;;2.37;;
4756;SDS011;2392;52.578;13.426;2023-05-10T11:58:30;3.53;;;2.90;;
4756;SDS011;2392;52.578;13.426;2023-05-10T12:00:57;2.63;;;2.43;;
4756;SDS011;2392;52.578;13.426;2023-05-10T12:03:25;3.63;;;3.10;;
4756;SDS011;2392;52.578;13.426;2023-05-10T12:05:52;4.93;;;3.07;;
4756;SDS011;2392;52.578;13.426;2023-05-10T12:08:20;2.70;;;2.50;;
4756;SDS011;2392;52.578;13.426;2023-05-10T12:10:50;3.50;;;2.60;;
4756;SDS011;2392;52.578;13.426;2023-05-10T12:13:18;3.40;;;2.93;;
4756;SDS011;2392;52.578;13.426;2023-05-10T12:15:46;4.83;;;2.63;;
4756;SDS011;2392;52.578;13.426;2023-05-10T12:18:13;5.97;;;2.70;;
4756;SDS011;2392;52.578;13.426;2023-05-10T12:20:41;2.40;;;2.07;;
4756;SDS011;2392;52.578;13.426;2023-05-10T12:23:09;5.97;;;2.70;;
4756;SDS011;2392;52.578;13.426;2023-05-10T12:25:36;10.63;;;2.80;;
4756;SDS011;2392;52.578;13.426;2023-05-10T12:28:07;7.20;;;3.20;;
4756;SDS011;2392;52.578;13.426;2023-05-10T12:30:35;2.50;;;2.23;;
4756;SDS011;2392;52.578;13.426;2023-05-10T12:33:06;4.40;;;2.50;;
4756;SDS011;2392;52.578;13.426;2023-05-10T12:35:43;3.43;;;2.33;;
4756;SDS011;2392;52.578;13.426;2023-05-10T12:38:27;6.00;;;2.33;;
4756;SDS011;2392;52.578;13.426;2023-05-10T12:40:56;6.53;;;2.13;;
4756;SDS011;2392;52.578;13.426;2023-05-10T12:43:25;4.43;;;2.40;;
4756;SDS011;2392;52.578;13.426;2023-05-10T12:45:53;4.10;;;2.20;;
4756;SDS011;2392;52.578;13.426;2023-05-10T12:48:20;4.97;;;3.17;;
4756;SDS011;2392;52.578;13.426;2023-05-10T12:50:47;4.23;;;2.93;;
4756;SDS011;2392;52.578;13.426;2023-05-10T12:53:14;5.07;;;2.80;;
4756;SDS011;2392;52.578;13.426;2023-05-10T12:55:41;6.73;;;2.30;;
4756;SDS011;2392;52.578;13.426;2023-05-10T12:58:08;2.50;;;2.30;;
4756;SDS011;2392;52.578;13.426;2023-05-10T13:00:37;4.67;;;2.47;;
4756;SDS011;2392;52.578;13.426;2023-05-10T13:03:04;5.40;;;2.47;;
4756;SDS011;2392;52.578;13.426;2023-05-10T13:05:31;6.30;;;2.60;;
4756;SDS011;2392;52.578;13.426;2023-05-10T13:07:58;8.53;;;2.37;;
4756;SDS011;2392;52.578;13.426;2023-05-10T13:10:25;3.97;;;2.33;;
4756;SDS011;2392;52.578;13.426;2023-05-10T13:12:52;6.70;;;2.50;;
4756;SDS011;2392;52.578;13.426;2023-05-10T13:15:19;2.73;;;2.53;;
4756;SDS011;2392;52.578;13.426;2023-05-10T13:17:48;4.67;;;2.30;;
4756;SDS011;2392;52.578;13.426;2023-05-10T13:20:14;2.43;;;2.23;;
4756;SDS011;2392;52.578;13.426;2023-05-10T13:22:42;3.77;;;2.20;;
4756;SDS011;2392;52.578;13.426;2023-05-10T13:25:09;3.90;;;2.60;;
4756;SDS011;2392;52.578;13.426;2023-05-10T13:27:37;5.17;;;2.50;;
4756;SDS011;2392;52.578;13.426;2023-05-10T13:30:04;5.43;;;2.27;;
4756;SDS011;2392;52.578;13.426;2023-05-10T13:32:32;3.27;;;2.10;;
4756;SDS011;2392;52.578;13.426;2023-05-10T13:35:01;6.03;;;2.37;;
4756;SDS011;2392;52.578;13.426;2023-05-10T13:37:29;2.53;;;2.33;;
4756;SDS011;2392;52.578;13.426;2023-05-10T13:39:56;2.40;;;2.30;;
4756;SDS011;2392;52.578;13.426;2023-05-10T13:42:23;3.23;;;2.13;;
4756;SDS011;2392;52.578;13.426;2023-05-10T13:44:52;2.60;;;2.40;;
4756;SDS011;2392;52.578;13.426;2023-05-10T13:47:19;3.90;;;2.20;;
4756;SDS011;2392;52.578;13.426;2023-05-10T13:49:47;2.87;;;2.67;;
4756;SDS011;2392;52.578;13.426;2023-05-10T13:52:15;2.10;;;1.80;;
4756;SDS011;2392;52.578;13.426;2023-05-10T13:54:43;4.00;;;2.30;;
4756;SDS011;2392;52.578;13.426;2023-05-10T13:57:10;6.00;;;2.40;;
4756;SDS011;2392;52.578;13.426;2023-05-10T13:59:39;17.10;;;2.47;;
4756;SDS011;2392;52.578;13.426;2023-05-10T14:02:06;4.40;;;3.20;;
4756;SDS011;2392;52.578;13.426;2023-05-10T14:04:33;3.63;;;2.20;;
4756;SDS011;2392;52.578;13.426;2023-05-10T14:07:00;2.50;;;2.30;;
4756;SDS011;2392;52.578;13.426;2023-05-10T14:09:29;4.40;;;2.53;;
4756;SDS011;2392;52.578;13.426;2023-05-10T14:11:56;2.00;;;1.90;;
4756;SDS011;2392;52.578;13.426;2023-05-10T14:14:23;2.80;;;2.60;;
4756;SDS011;2392;52.578;13.426;2023-05-10T14:16:51;2.87;;;2.33;;
4756;SDS011;2392;52.578;13.426;2023-05-10T14:19:18;2.67;;;2.47;;
4756;SDS011;2392;52.578;13.426;2023-05-10T14:21:45;2.77;;;2.57;;
4756;SDS011;2392;52.578;13.426;2023-05-10T14:24:12;2.97;;;2.43;;
4756;SDS011;2392;52.578;13.426;2023-05-10T14:26:40;2.30;;;2.20;;
4756;SDS011;2392;52.578;13.426;2023-05-10T14:29:07;2.30;;;2.10;;
4756;SDS011;2392;52.578;13.426;2023-05-10T14:31:34;7.70;;;2.30;;
4756;SDS011;2392;52.578;13.426;2023-05-10T14:34:01;3.77;;;2.77;;
4756;SDS011;2392;52.578;13.426;2023-05-10T14:36:28;3.50;;;2.50;;
4756;SDS011;2392;52.578;13.426;2023-05-10T14:38:55;2.27;;;1.67;;
4756;SDS011;2392;52.578;13.426;2023-05-10T14:41:22;4.50;;;2.30;;
4756;SDS011;2392;52.578;13.426;2023-05-10T14:43:51;2.47;;;2.27;;
4756;SDS011;2392;52.578;13.426;2023-05-10T14:46:18;4.80;;;2.90;;
4756;SDS011;2392;52.578;13.426;2023-05-10T14:48:45;2.80;;;2.37;;
4756;SDS011;2392;52.578;13.426;2023-05-10T14:51:12;5.00;;;2.20;;
4756;SDS011;2392;52.578;13.426;2023-05-10T14:53:39;2.30;;;2.20;;
4756;SDS011;2392;52.578;13.426;2023-05-10T14:56:06;2.70;;;2.50;;
4756;SDS011;2392;52.578;13.426;2023-05-10T14:58:33;2.53;;;2.27;;
4756;SDS011;2392;52.578;13.426;2023-05-10T15:01:02;3.37;;;2.10;;
4756;SDS011;2392;52.578;13.426;2023-05-10T15:03:29;3.40;;;2.73;;
4756;SDS011;2392;52.578;13.426;2023-05-10T15:05:56;2.27;;;2.17;;
4756;SDS011;2392;52.578;13.426;2023-05-10T15:08:23;2.30;;;2.20;;
4756;SDS011;2392;52.578;13.426;2023-05-10T15:10:50;2.40;;;2.20;;
4756;SDS011;2392;52.578;13.426;2023-05-10T15:13:20;2.30;;;1.90;;
4756;SDS011;2392;52.578;13.426;2023-05-10T15:15:47;3.50;;;2.30;;
4756;SDS011;2392;52.578;13.426;2023-05-10T15:18:15;2.40;;;2.20;;
4756;SDS011;2392;52.578;13.426;2023-05-10T15:20:42;2.30;;;2.10;;